sensor_id;sensor_type;location;lat;lon;timestamp;pressure;altitude;pressure_sealevel;temperature;humidity
55068;BME280;40965;52.368;9.712;2023-03-14T00:01:17;98359.31;;;10.05;94.93
55068;BME280;40965;52.368;9.712;2023-03-14T00:03:45;98353.91;;;10.09;94.55
55068;BME280;40965;52.368;9.712;2023-03-14T00:06:12;98352.69;;;10.17;93.88
55068;BME280;40965;52.368;9.712;2023-03-14T00:08:40;98337.47;;;10.26;93.63
55068;BME280;40965;52.368;9.712;2023-03-14T00:11:10;98318.03;;;10.32;92.84
55068;BME280;40965;52.368;9.712;2023-03-14T00:13:38;98310.78;;;10.39;92.89
55068;BME280;40965;52.368;9.712;2023-03-14T00:16:10;98295.66;;;10.46;91.96
55068;BME280;40965;52.368;9.712;2023-03-14T00:18:38;98291.06;;;10.51;91.61
55068;BME280;40965;52.368;9.712;2023-03-14T00:21:06;98307.53;;;10.53;91.61
55068;BME280;40965;52.368;9.712;2023-03-14T00:23:35;98316.38;;;10.50;91.67
55068;BME280;40965;52.368;9.712;2023-03-14T00:26:04;98304.34;;;10.46;91.86
55068;BME280;40965;52.368;9.712;2023-03-14T00:28:32;98297.56;;;10.42;91.96
55068;BME280;40965;52.368;9.712;2023-03-14T00:31:02;98315.09;;;10.40;92.37
55068;BME280;40965;52.368;9.712;2023-03-14T00:33:29;98325.69;;;10.37;92.69
55068;BME280;40965;52.368;9.712;2023-03-14T00:36:02;98331.50;;;10.43;92.69
55068;BME280;40965;52.368;9.712;2023-03-14T00:38:32;98326.75;;;10.52;92.42
55068;BME280;40965;52.368;9.712;2023-03-14T00:40:59;98315.09;;;10.59;91.85
55068;BME280;40965;52.368;9.712;2023-03-14T00:43:29;98345.50;;;10.62;91.75
55068;BME280;40965;52.368;9.712;2023-03-14T00:45:56;98357.25;;;10.72;91.47
55068;BME280;40965;52.368;9.712;2023-03-14T00:48:23;98345.16;;;10.69;91.63
55068;BME280;40965;52.368;9.712;2023-03-14T00:50:49;98351.38;;;10.67;92.11
55068;BME280;40965;52.368;9.712;2023-03-14T00:53:16;98354.69;;;10.70;91.98
55068;BME280;40965;52.368;9.712;2023-03-14T00:55:43;98352.28;;;10.66;92.35
55068;BME280;40965;52.368;9.712;2023-03-14T00:58:11;98337.50;;;10.65;92.47
55068;BME280;40965;52.368;9.712;2023-03-14T01:00:40;98336.59;;;10.66;92.63
55068;BME280;40965;52.368;9.712;2023-03-14T01:03:08;98320.97;;;10.64;92.50
55068;BME280;40965;52.368;9.712;2023-03-14T01:05:35;98311.50;;;10.62;92.42
55068;BME280;40965;52.368;9.712;2023-03-14T01:08:09;98308.00;;;10.61;92.39
55068;BME280;40965;52.368;9.712;2023-03-14T01:10:40;98288.59;;;10.48;92.84
55068;BME280;40965;52.368;9.712;2023-03-14T01:13:08;98275.09;;;10.38;93.81
55068;BME280;40965;52.368;9.712;2023-03-14T01:15:35;98295.88;;;10.41;93.93
55068;BME280;40965;52.368;9.712;2023-03-14T01:18:05;98289.72;;;10.42;93.50
55068;BME280;40965;52.368;9.712;2023-03-14T01:20:32;98277.47;;;10.42;93.63
55068;BME280;40965;52.368;9.712;2023-03-14T01:22:58;98276.41;;;10.47;93.77
55068;BME280;40965;52.368;9.712;2023-03-14T01:25:25;98272.88;;;10.48;93.08
55068;BME280;40965;52.368;9.712;2023-03-14T01:27:51;98265.03;;;10.48;93.31
55068;BME280;40965;52.368;9.712;2023-03-14T01:30:18;98262.50;;;10.46;93.10
55068;BME280;40965;52.368;9.712;2023-03-14T01:32:44;98269.63;;;10.42;93.18
55068;BME280;40965;52.368;9.712;2023-03-14T01:35:11;98262.84;;;10.38;93.23
55068;BME280;40965;52.368;9.712;2023-03-14T01:37:37;98262.94;;;10.37;93.18
55068;BME280;40965;52.368;9.712;2023-03-14T01:40:04;98270.72;;;10.38;93.51
55068;BME280;40965;52.368;9.712;2023-03-14T01:42:31;98286.03;;;10.46;92.69
55068;BME280;40965;52.368;9.712;2023-03-14T01:45:00;98294.53;;;10.51;92.51
55068;BME280;40965;52.368;9.712;2023-03-14T01:47:27;98309.63;;;10.64;91.42
55068;BME280;40965;52.368;9.712;2023-03-14T01:50:09;98301.13;;;10.78;90.69
55068;BME280;40965;52.368;9.712;2023-03-14T01:52:43;98277.06;;;10.88;89.93
55068;BME280;40965;52.368;9.712;2023-03-14T01:55:14;98246.34;;;10.92;89.79
55068;BME280;40965;52.368;9.712;2023-03-14T01:57:46;98249.69;;;10.96;89.54
55068;BME280;40965;52.368;9.712;2023-03-14T02:00:18;98261.84;;;10.97;89.19
55068;BME280;40965;52.368;9.712;2023-03-14T02:02:49;98267.00;;;10.98;89.15
55068;BME280;40965;52.368;9.712;2023-03-14T02:05:20;98268.09;;;10.94;89.25
55068;BME280;40965;52.368;9.712;2023-03-14T02:07:51;98270.78;;;10.92;89.30
55068;BME280;40965;52.368;9.712;2023-03-14T02:10:21;98269.16;;;10.90;89.66
55068;BME280;40965;52.368;9.712;2023-03-14T02:12:52;98264.91;;;10.87;89.89
55068;BME280;40965;52.368;9.712;2023-03-14T02:15:20;98279.63;;;10.90;89.69
55068;BME280;40965;52.368;9.712;2023-03-14T02:17:47;98283.91;;;10.91;89.38
55068;BME280;40965;52.368;9.712;2023-03-14T02:20:33;98276.84;;;10.93;89.51
55068;BME280;40965;52.368;9.712;2023-03-14T02:23:05;98289.78;;;10.96;89.29
55068;BME280;40965;52.368;9.712;2023-03-14T02:28:32;98282.88;;;10.95;89.76
55068;BME280;40965;52.368;9.712;2023-03-14T02:30:59;98277.78;;;10.92;89.92
55068;BME280;40965;52.368;9.712;2023-03-14T02:33:26;98268.38;;;10.88;90.31
55068;BME280;40965;52.368;9.712;2023-03-14T02:35:59;98267.53;;;10.87;90.22
55068;BME280;40965;52.368;9.712;2023-03-14T02:38:31;98270.44;;;10.81;90.45
55068;BME280;40965;52.368;9.712;2023-03-14T02:41:00;98270.22;;;10.86;90.05
55068;BME280;40965;52.368;9.712;2023-03-14T02:43:26;98266.75;;;10.85;90.13
55068;BME280;40965;52.368;9.712;2023-03-14T02:45:53;98249.25;;;10.86;89.53
55068;BME280;40965;52.368;9.712;2023-03-14T02:48:21;98249.25;;;10.86;89.46
55068;BME280;40965;52.368;9.712;2023-03-14T02:50:52;98247.66;;;10.83;89.23
55068;BME280;40965;52.368;9.712;2023-03-14T02:53:26;98248.72;;;10.79;89.52
55068;BME280;40965;52.368;9.712;2023-03-14T02:55:55;98243.84;;;10.71;89.75
55068;BME280;40965;52.368;9.712;2023-03-14T02:58:21;98225.63;;;10.70;89.49
55068;BME280;40965;52.368;9.712;2023-03-14T03:00:48;98252.50;;;10.73;89.28
55068;BME280;40965;52.368;9.712;2023-03-14T03:03:16;98248.88;;;10.76;89.04
55068;BME280;40965;52.368;9.712;2023-03-14T03:05:42;98239.34;;;10.75;89.12
55068;BME280;40965;52.368;9.712;2023-03-14T03:08:09;98234.09;;;10.75;88.77
55068;BME280;40965;52.368;9.712;2023-03-14T03:10:36;98245.47;;;10.74;88.73
55068;BME280;40965;52.368;9.712;2023-03-14T03:13:02;98236.00;;;10.71;88.94
55068;BME280;40965;52.368;9.712;2023-03-14T03:15:29;98240.47;;;10.69;88.82
55068;BME280;40965;52.368;9.712;2023-03-14T03:17:56;98237.00;;;10.69;88.96
55068;BME280;40965;52.368;9.712;2023-03-14T03:20:23;98232.63;;;10.69;89.09
55068;BME280;40965;52.368;9.712;2023-03-14T03:22:49;98216.84;;;10.71;88.85
55068;BME280;40965;52.368;9.712;2023-03-14T03:25:16;98226.41;;;10.72;88.49
55068;BME280;40965;52.368;9.712;2023-03-14T03:27:42;98223.00;;;10.70;88.97
55068;BME280;40965;52.368;9.712;2023-03-14T03:30:09;98220.53;;;10.67;88.65
55068;BME280;40965;52.368;9.712;2023-03-14T03:32:36;98211.69;;;10.69;88.28
55068;BME280;40965;52.368;9.712;2023-03-14T03:35:03;98223.09;;;10.68;88.51
55068;BME280;40965;52.368;9.712;2023-03-14T03:37:31;98211.69;;;10.69;87.94
55068;BME280;40965;52.368;9.712;2023-03-14T03:39:58;98212.53;;;10.70;87.82
55068;BME280;40965;52.368;9.712;2023-03-14T03:42:29;98213.41;;;10.70;88.27
55068;BME280;40965;52.368;9.712;2023-03-14T03:44:55;98223.88;;;10.70;88.83
55068;BME280;40965;52.368;9.712;2023-03-14T03:47:22;98227.69;;;10.63;90.87
55068;BME280;40965;52.368;9.712;2023-03-14T03:49:48;98244.63;;;10.37;98.50
55068;BME280;40965;52.368;9.712;2023-03-14T03:52:15;98247.00;;;9.84;100.00
55068;BME280;40965;52.368;9.712;2023-03-14T03:54:41;98250.94;;;9.33;100.00
55068;BME280;40965;52.368;9.712;2023-03-14T03:57:10;98246.34;;;8.97;100.00
55068;BME280;40965;52.368;9.712;2023-03-14T03:59:37;98234.78;;;8.82;100.00
55068;BME280;40965;52.368;9.712;2023-03-14T04:02:05;98236.81;;;8.75;100.00
55068;BME280;40965;52.368;9.712;2023-03-14T04:04:32;98229.28;;;8.67;100.00
55068;BME280;40965;52.368;9.712;2023-03-14T04:06:58;98241.59;;;8.64;100.00
55068;BME280;40965;52.368;9.712;2023-03-14T04:09:25;98226.84;;;8.63;100.00
55068;BME280;40965;52.368;9.712;2023-03-14T04:11:51;98230.56;;;8.57;100.00
55068;BME280;40965;52.368;9.712;2023-03-14T04:14:17;98233.47;;;8.49;100.00
55068;BME280;40965;52.368;9.712;2023-03-14T04:16:44;98229.31;;;8.43;100.00
55068;BME280;40965;52.368;9.712;2023-03-14T04:19:20;98237.94;;;8.46;100.00
55068;BME280;40965;52.368;9.712;2023-03-14T04:21:47;98235.00;;;8.31;100.00
55068;BME280;40965;52.368;9.712;2023-03-14T04:24:13;98236.31;;;8.19;100.00
55068;BME280;40965;52.368;9.712;2023-03-14T04:26:40;98236.00;;;8.05;100.00
55068;BME280;40965;52.368;9.712;2023-03-14T04:29:06;98229.31;;;7.98;100.00
55068;BME280;40965;52.368;9.712;2023-03-14T04:31:33;98230.38;;;7.92;100.00
55068;BME280;40965;52.368;9.712;2023-03-14T04:33:59;98237.19;;;7.96;100.00
55068;BME280;40965;52.368;9.712;2023-03-14T04:36:27;98224.97;;;7.98;100.00
55068;BME280;40965;52.368;9.712;2023-03-14T04:38:54;98217.91;;;8.00;100.00
55068;BME280;40965;52.368;9.712;2023-03-14T04:41:20;98229.31;;;7.98;100.00
55068;BME280;40965;52.368;9.712;2023-03-14T04:43:47;98218.53;;;8.07;100.00
55068;BME280;40965;52.368;9.712;2023-03-14T04:46:13;98212.84;;;7.97;100.00
55068;BME280;40965;52.368;9.712;2023-03-14T04:48:39;98212.97;;;7.94;100.00
55068;BME280;40965;52.368;9.712;2023-03-14T04:51:06;98207.75;;;7.94;100.00
55068;BME280;40965;52.368;9.712;2023-03-14T04:53:33;98213.00;;;7.92;100.00
55068;BME280;40965;52.368;9.712;2023-03-14T04:56:01;98200.84;;;7.93;100.00
55068;BME280;40965;52.368;9.712;2023-03-14T04:58:27;98200.66;;;7.98;100.00
55068;BME280;40965;52.368;9.712;2023-03-14T05:00:54;98193.13;;;7.90;100.00
55068;BME280;40965;52.368;9.712;2023-03-14T05:03:21;98191.44;;;7.89;100.00
55068;BME280;40965;52.368;9.712;2023-03-14T05:05:47;98197.50;;;7.89;100.00
55068;BME280;40965;52.368;9.712;2023-03-14T05:08:13;98182.22;;;7.80;100.00
55068;BME280;40965;52.368;9.712;2023-03-14T05:10:40;98173.78;;;7.73;100.00
55068;BME280;40965;52.368;9.712;2023-03-14T05:13:06;98174.69;;;7.72;100.00
55068;BME280;40965;52.368;9.712;2023-03-14T05:15:33;98169.75;;;7.65;100.00
55068;BME280;40965;52.368;9.712;2023-03-14T05:17:59;98176.53;;;7.69;100.00
55068;BME280;40965;52.368;9.712;2023-03-14T05:20:26;98178.72;;;7.57;100.00
55068;BME280;40965;52.368;9.712;2023-03-14T05:22:53;98165.91;;;7.51;100.00
55068;BME280;40965;52.368;9.712;2023-03-14T05:25:19;98179.00;;;7.50;100.00
55068;BME280;40965;52.368;9.712;2023-03-14T05:27:45;98174.56;;;7.52;100.00
55068;BME280;40965;52.368;9.712;2023-03-14T05:30:12;98178.13;;;7.49;100.00
55068;BME280;40965;52.368;9.712;2023-03-14T05:32:39;98172.81;;;7.52;100.00
55068;BME280;40965;52.368;9.712;2023-03-14T05:35:05;98174.69;;;7.49;100.00
55068;BME280;40965;52.368;9.712;2023-03-14T05:37:32;98166.47;;;7.59;100.00
55068;BME280;40965;52.368;9.712;2023-03-14T05:39:59;98164.53;;;7.65;100.00
55068;BME280;40965;52.368;9.712;2023-03-14T05:42:29;98172.81;;;7.76;100.00
55068;BME280;40965;52.368;9.712;2023-03-14T05:44:55;98176.09;;;7.81;100.00
55068;BME280;40965;52.368;9.712;2023-03-14T05:47:22;98175.97;;;7.84;100.00
55068;BME280;40965;52.368;9.712;2023-03-14T05:49:48;98179.94;;;7.94;100.00
55068;BME280;40965;52.368;9.712;2023-03-14T05:52:15;98181.50;;;7.99;100.00
55068;BME280;40965;52.368;9.712;2023-03-14T05:54:41;98181.56;;;7.97;100.00
55068;BME280;40965;52.368;9.712;2023-03-14T05:57:08;98171.03;;;8.00;100.00
55068;BME280;40965;52.368;9.712;2023-03-14T05:59:34;98175.19;;;8.04;100.00
55068;BME280;40965;52.368;9.712;2023-03-14T06:02:00;98168.41;;;8.00;100.00
55068;BME280;40965;52.368;9.712;2023-03-14T06:04:30;98172.66;;;8.03;100.00
55068;BME280;40965;52.368;9.712;2023-03-14T06:06:56;98164.97;;;8.00;100.00
55068;BME280;40965;52.368;9.712;2023-03-14T06:09:23;98161.16;;;8.08;100.00
55068;BME280;40965;52.368;9.712;2023-03-14T06:11:49;98142.63;;;8.16;100.00
55068;BME280;40965;52.368;9.712;2023-03-14T06:14:17;98166.56;;;8.26;100.00
55068;BME280;40965;52.368;9.712;2023-03-14T06:16:43;98160.91;;;8.37;100.00
55068;BME280;40965;52.368;9.712;2023-03-14T06:19:10;98159.72;;;8.46;100.00
55068;BME280;40965;52.368;9.712;2023-03-14T06:21:37;98169.53;;;8.61;100.00
55068;BME280;40965;52.368;9.712;2023-03-14T06:24:03;98173.72;;;8.65;100.00
55068;BME280;40965;52.368;9.712;2023-03-14T06:26:30;98167.03;;;8.80;100.00
55068;BME280;40965;52.368;9.712;2023-03-14T06:28:56;98169.50;;;8.83;100.00
55068;BME280;40965;52.368;9.712;2023-03-14T06:31:26;98168.38;;;8.89;100.00
55068;BME280;40965;52.368;9.712;2023-03-14T06:33:52;98181.38;;;8.90;100.00
55068;BME280;40965;52.368;9.712;2023-03-14T06:36:19;98182.09;;;8.94;100.00
55068;BME280;40965;52.368;9.712;2023-03-14T06:38:46;98191.38;;;9.01;100.00
55068;BME280;40965;52.368;9.712;2023-03-14T06:41:16;98175.72;;;9.01;100.00
55068;BME280;40965;52.368;9.712;2023-03-14T06:43:42;98169.28;;;9.08;100.00
55068;BME280;40965;52.368;9.712;2023-03-14T06:46:09;98173.13;;;9.20;100.00
55068;BME280;40965;52.368;9.712;2023-03-14T06:48:35;98172.94;;;9.25;99.46
55068;BME280;40965;52.368;9.712;2023-03-14T06:51:02;98167.66;;;9.26;99.04
55068;BME280;40965;52.368;9.712;2023-03-14T06:53:31;98177.00;;;9.32;97.44
55068;BME280;40965;52.368;9.712;2023-03-14T06:55:58;98182.66;;;9.42;96.28
55068;BME280;40965;52.368;9.712;2023-03-14T06:58:24;98177.38;;;9.43;95.77
55068;BME280;40965;52.368;9.712;2023-03-14T07:00:52;98180.50;;;9.52;93.81
55068;BME280;40965;52.368;9.712;2023-03-14T07:03:19;98179.88;;;9.66;92.30
55068;BME280;40965;52.368;9.712;2023-03-14T07:05:46;98184.09;;;9.68;92.71
55068;BME280;40965;52.368;9.712;2023-03-14T07:08:13;98182.41;;;9.67;92.46
55068;BME280;40965;52.368;9.712;2023-03-14T07:10:41;98197.47;;;9.62;93.51
55068;BME280;40965;52.368;9.712;2023-03-14T07:13:07;98188.13;;;9.56;94.28
55068;BME280;40965;52.368;9.712;2023-03-14T07:15:34;98180.28;;;9.56;94.45
55068;BME280;40965;52.368;9.712;2023-03-14T07:18:00;98181.19;;;9.55;94.56
55068;BME280;40965;52.368;9.712;2023-03-14T07:20:27;98189.09;;;9.54;94.42
55068;BME280;40965;52.368;9.712;2023-03-14T07:22:57;98175.94;;;9.57;94.00
55068;BME280;40965;52.368;9.712;2023-03-14T07:25:25;98200.00;;;9.64;94.10
55068;BME280;40965;52.368;9.712;2023-03-14T07:27:52;98186.72;;;9.68;93.65
55068;BME280;40965;52.368;9.712;2023-03-14T07:30:18;98178.69;;;9.73;92.89
55068;BME280;40965;52.368;9.712;2023-03-14T07:32:45;98196.06;;;9.74;92.98
55068;BME280;40965;52.368;9.712;2023-03-14T07:35:11;98204.66;;;9.76;92.57
55068;BME280;40965;52.368;9.712;2023-03-14T07:37:40;98195.00;;;9.78;92.78
55068;BME280;40965;52.368;9.712;2023-03-14T07:40:07;98208.16;;;9.76;92.75
55068;BME280;40965;52.368;9.712;2023-03-14T07:42:35;98201.94;;;9.79;93.41
55068;BME280;40965;52.368;9.712;2023-03-14T07:45:02;98209.69;;;9.81;93.36
55068;BME280;40965;52.368;9.712;2023-03-14T07:47:28;98212.38;;;9.79;94.49
55068;BME280;40965;52.368;9.712;2023-03-14T07:49:55;98208.34;;;9.72;95.48
55068;BME280;40965;52.368;9.712;2023-03-14T07:52:21;98204.25;;;9.66;96.85
55068;BME280;40965;52.368;9.712;2023-03-14T07:54:48;98200.34;;;9.56;98.14
55068;BME280;40965;52.368;9.712;2023-03-14T07:57:15;98207.72;;;9.46;99.97
55068;BME280;40965;52.368;9.712;2023-03-14T07:59:41;98214.97;;;9.39;100.00
55068;BME280;40965;52.368;9.712;2023-03-14T08:02:10;98214.13;;;9.39;100.00
55068;BME280;40965;52.368;9.712;2023-03-14T08:04:39;98210.88;;;9.34;100.00
55068;BME280;40965;52.368;9.712;2023-03-14T08:07:06;98200.53;;;9.31;100.00
55068;BME280;40965;52.368;9.712;2023-03-14T08:09:33;98205.84;;;9.29;100.00
55068;BME280;40965;52.368;9.712;2023-03-14T08:11:59;98208.13;;;9.37;100.00
55068;BME280;40965;52.368;9.712;2023-03-14T08:14:26;98199.88;;;9.46;100.00
55068;BME280;40965;52.368;9.712;2023-03-14T08:16:54;98203.38;;;9.47;100.00
55068;BME280;40965;52.368;9.712;2023-03-14T08:19:20;98217.06;;;9.52;100.00
55068;BME280;40965;52.368;9.712;2023-03-14T08:21:47;98202.88;;;9.57;99.87
55068;BME280;40965;52.368;9.712;2023-03-14T08:24:13;98218.28;;;9.64;98.88
55068;BME280;40965;52.368;9.712;2023-03-14T08:26:40;98202.63;;;9.64;98.45
55068;BME280;40965;52.368;9.712;2023-03-14T08:29:07;98207.69;;;9.67;97.96
55068;BME280;40965;52.368;9.712;2023-03-14T08:31:34;98207.63;;;9.68;98.97
55068;BME280;40965;52.368;9.712;2023-03-14T08:34:02;98201.94;;;10.17;97.34
55068;BME280;40965;52.368;9.712;2023-03-14T08:36:29;98203.47;;;10.77;93.22
55068;BME280;40965;52.368;9.712;2023-03-14T08:38:56;98194.94;;;10.91;92.42
55068;BME280;40965;52.368;9.712;2023-03-14T08:41:23;98209.63;;;10.76;92.17
55068;BME280;40965;52.368;9.712;2023-03-14T08:43:49;98202.34;;;10.46;93.97
55068;BME280;40965;52.368;9.712;2023-03-14T08:46:16;98202.69;;;10.19;95.78
55068;BME280;40965;52.368;9.712;2023-03-14T08:48:46;98205.31;;;10.19;96.77
55068;BME280;40965;52.368;9.712;2023-03-14T08:51:13;98204.31;;;10.22;96.62
55068;BME280;40965;52.368;9.712;2023-03-14T08:53:41;98205.59;;;10.13;97.15
55068;BME280;40965;52.368;9.712;2023-03-14T08:56:08;98207.50;;;9.90;98.78
55068;BME280;40965;52.368;9.712;2023-03-14T08:58:36;98210.97;;;9.91;99.77
55068;BME280;40965;52.368;9.712;2023-03-14T09:01:08;98205.78;;;9.89;100.00
55068;BME280;40965;52.368;9.712;2023-03-14T09:03:35;98212.53;;;9.95;100.00
55068;BME280;40965;52.368;9.712;2023-03-14T09:06:03;98210.63;;;9.99;100.00
55068;BME280;40965;52.368;9.712;2023-03-14T09:08:31;98213.84;;;9.85;100.00
55068;BME280;40965;52.368;9.712;2023-03-14T09:10:58;98212.50;;;9.76;100.00
55068;BME280;40965;52.368;9.712;2023-03-14T09:13:25;98207.16;;;9.79;100.00
55068;BME280;40965;52.368;9.712;2023-03-14T09:15:52;98203.69;;;9.79;100.00
55068;BME280;40965;52.368;9.712;2023-03-14T09:18:20;98206.84;;;9.85;100.00
55068;BME280;40965;52.368;9.712;2023-03-14T09:20:47;98205.69;;;9.92;100.00
55068;BME280;40965;52.368;9.712;2023-03-14T09:23:15;98209.91;;;9.95;100.00
55068;BME280;40965;52.368;9.712;2023-03-14T09:25:41;98214.88;;;10.01;100.00
55068;BME280;40965;52.368;9.712;2023-03-14T09:28:08;98209.97;;;10.13;100.00
55068;BME280;40965;52.368;9.712;2023-03-14T09:30:34;98220.81;;;10.43;100.00
55068;BME280;40965;52.368;9.712;2023-03-14T09:33:01;98213.78;;;10.80;100.00
55068;BME280;40965;52.368;9.712;2023-03-14T09:35:27;98210.78;;;11.05;99.03
55068;BME280;40965;52.368;9.712;2023-03-14T09:37:53;98205.50;;;11.07;96.43
55068;BME280;40965;52.368;9.712;2023-03-14T09:40:20;98211.25;;;10.96;97.21
55068;BME280;40965;52.368;9.712;2023-03-14T09:42:51;98209.72;;;10.92;98.01
55068;BME280;40965;52.368;9.712;2023-03-14T09:45:34;98205.19;;;10.96;98.47
55068;BME280;40965;52.368;9.712;2023-03-14T09:48:03;98205.25;;;11.29;96.80
55068;BME280;40965;52.368;9.712;2023-03-14T09:50:40;98203.78;;;11.41;95.36
55068;BME280;40965;52.368;9.712;2023-03-14T09:53:14;98206.53;;;11.55;94.73
55068;BME280;40965;52.368;9.712;2023-03-14T09:55:44;98195.47;;;12.16;91.57
55068;BME280;40965;52.368;9.712;2023-03-14T09:58:19;98206.13;;;12.61;87.38
55068;BME280;40965;52.368;9.712;2023-03-14T10:00:46;98207.34;;;12.23;89.30
55068;BME280;40965;52.368;9.712;2023-03-14T10:05:40;98194.78;;;11.96;90.69
55068;BME280;40965;52.368;9.712;2023-03-14T10:08:11;98193.63;;;12.34;90.35
55068;BME280;40965;52.368;9.712;2023-03-14T10:10:39;98192.38;;;12.71;86.13
55068;BME280;40965;52.368;9.712;2023-03-14T10:15:38;98188.69;;;12.90;83.79
55068;BME280;40965;52.368;9.712;2023-03-14T10:18:11;98193.56;;;12.82;84.42
55068;BME280;40965;52.368;9.712;2023-03-14T10:23:45;98187.06;;;13.18;82.84
55068;BME280;40965;52.368;9.712;2023-03-14T10:26:16;98188.19;;;13.14;82.38
55068;BME280;40965;52.368;9.712;2023-03-14T10:28:48;98179.72;;;13.08;82.51
55068;BME280;40965;52.368;9.712;2023-03-14T10:31:24;98198.91;;;12.80;83.40
55068;BME280;40965;52.368;9.712;2023-03-14T10:34:04;98202.25;;;12.36;85.88
55068;BME280;40965;52.368;9.712;2023-03-14T10:36:33;98200.44;;;12.04;87.66
55068;BME280;40965;52.368;9.712;2023-03-14T10:39:41;98207.47;;;12.04;88.10
55068;BME280;40965;52.368;9.712;2023-03-14T10:42:17;98208.50;;;12.01;88.69
55068;BME280;40965;52.368;9.712;2023-03-14T10:44:49;98199.53;;;12.05;88.52
55068;BME280;40965;52.368;9.712;2023-03-14T10:47:22;98208.28;;;11.88;89.40
55068;BME280;40965;52.368;9.712;2023-03-14T10:49:50;98198.38;;;11.78;89.93
55068;BME280;40965;52.368;9.712;2023-03-14T10:52:28;98200.38;;;11.72;89.95
55068;BME280;40965;52.368;9.712;2023-03-14T10:54:59;98201.38;;;11.54;90.86
55068;BME280;40965;52.368;9.712;2023-03-14T10:57:27;98206.31;;;11.42;91.23
55068;BME280;40965;52.368;9.712;2023-03-14T10:59:55;98203.25;;;11.34;91.79
55068;BME280;40965;52.368;9.712;2023-03-14T11:05:36;98205.78;;;11.18;93.54
55068;BME280;40965;52.368;9.712;2023-03-14T11:08:25;98203.50;;;11.12;93.38
55068;BME280;40965;52.368;9.712;2023-03-14T11:11:09;98206.16;;;11.11;93.41
55068;BME280;40965;52.368;9.712;2023-03-14T11:16:53;98216.44;;;10.98;96.83
55068;BME280;40965;52.368;9.712;2023-03-14T11:22:43;98300.97;;;10.04;100.00
55068;BME280;40965;52.368;9.712;2023-03-14T11:28:37;98354.56;;;8.40;100.00
55068;BME280;40965;52.368;9.712;2023-03-14T11:31:26;98377.38;;;7.85;100.00
55068;BME280;40965;52.368;9.712;2023-03-14T11:34:22;98391.88;;;7.40;100.00
55068;BME280;40965;52.368;9.712;2023-03-14T11:37:32;98398.28;;;7.01;100.00
55068;BME280;40965;52.368;9.712;2023-03-14T11:42:43;98419.16;;;6.70;100.00
55068;BME280;40965;52.368;9.712;2023-03-14T11:45:20;98427.91;;;6.67;100.00
55068;BME280;40965;52.368;9.712;2023-03-14T11:48:38;98439.84;;;6.74;100.00
55068;BME280;40965;52.368;9.712;2023-03-14T11:51:12;98446.09;;;6.67;100.00
55068;BME280;40965;52.368;9.712;2023-03-14T11:56:52;98464.19;;;6.40;100.00
55068;BME280;40965;52.368;9.712;2023-03-14T11:59:27;98488.06;;;6.22;100.00
55068;BME280;40965;52.368;9.712;2023-03-14T12:02:05;98514.13;;;6.19;100.00
55068;BME280;40965;52.368;9.712;2023-03-14T12:04:48;98536.72;;;6.15;100.00
55068;BME280;40965;52.368;9.712;2023-03-14T12:07:23;98550.06;;;6.01;100.00
55068;BME280;40965;52.368;9.712;2023-03-14T12:09:55;98567.59;;;5.90;100.00
55068;BME280;40965;52.368;9.712;2023-03-14T12:12:25;98579.44;;;5.64;100.00
55068;BME280;40965;52.368;9.712;2023-03-14T12:14:58;98610.19;;;5.42;100.00
55068;BME280;40965;52.368;9.712;2023-03-14T12:17:35;98605.53;;;5.16;100.00
55068;BME280;40965;52.368;9.712;2023-03-14T12:20:17;98629.88;;;5.08;100.00
55068;BME280;40965;52.368;9.712;2023-03-14T12:25:19;98656.72;;;5.06;100.00
55068;BME280;40965;52.368;9.712;2023-03-14T12:30:39;98693.38;;;4.86;100.00
55068;BME280;40965;52.368;9.712;2023-03-14T12:38:09;98702.56;;;4.52;100.00
55068;BME280;40965;52.368;9.712;2023-03-14T12:40:47;98717.31;;;4.50;100.00
55068;BME280;40965;52.368;9.712;2023-03-14T12:48:37;98755.69;;;4.81;100.00
55068;BME280;40965;52.368;9.712;2023-03-14T12:51:13;98745.41;;;4.75;100.00
55068;BME280;40965;52.368;9.712;2023-03-14T12:54:47;98730.06;;;4.61;100.00
55068;BME280;40965;52.368;9.712;2023-03-14T12:57:15;98750.91;;;4.55;100.00
55068;BME280;40965;52.368;9.712;2023-03-14T12:59:56;98768.16;;;4.56;100.00
55068;BME280;40965;52.368;9.712;2023-03-14T13:02:27;98780.16;;;4.61;100.00
55068;BME280;40965;52.368;9.712;2023-03-14T13:05:04;98782.41;;;4.85;100.00
55068;BME280;40965;52.368;9.712;2023-03-14T13:10:27;98835.78;;;5.51;100.00
55068;BME280;40965;52.368;9.712;2023-03-14T13:13:02;98838.41;;;5.96;98.21
55068;BME280;40965;52.368;9.712;2023-03-14T13:15:34;98836.44;;;6.53;95.44
55068;BME280;40965;52.368;9.712;2023-03-14T13:18:17;98839.59;;;7.04;93.65
55068;BME280;40965;52.368;9.712;2023-03-14T13:20:53;98853.22;;;7.15;89.81
55068;BME280;40965;52.368;9.712;2023-03-14T13:23:30;98851.50;;;7.14;89.86
55068;BME280;40965;52.368;9.712;2023-03-14T13:25:59;98859.91;;;7.25;88.55
55068;BME280;40965;52.368;9.712;2023-03-14T13:28:27;98867.00;;;7.20;86.91
55068;BME280;40965;52.368;9.712;2023-03-14T13:31:00;98882.16;;;7.01;87.92
55068;BME280;40965;52.368;9.712;2023-03-14T13:33:30;98888.66;;;6.83;87.26
55068;BME280;40965;52.368;9.712;2023-03-14T13:36:02;98898.44;;;6.72;88.79
55068;BME280;40965;52.368;9.712;2023-03-14T13:38:32;98906.41;;;6.64;90.15
55068;BME280;40965;52.368;9.712;2023-03-14T13:41:06;98911.97;;;6.44;90.63
55068;BME280;40965;52.368;9.712;2023-03-14T13:43:36;98932.34;;;6.23;90.46
55068;BME280;40965;52.368;9.712;2023-03-14T13:46:15;98942.16;;;6.06;92.10
55068;BME280;40965;52.368;9.712;2023-03-14T13:48:44;98949.16;;;6.02;94.21
55068;BME280;40965;52.368;9.712;2023-03-14T13:51:15;98950.97;;;5.99;95.01
55068;BME280;40965;52.368;9.712;2023-03-14T13:53:53;98957.84;;;6.00;94.56
55068;BME280;40965;52.368;9.712;2023-03-14T13:56:24;98969.06;;;6.03;94.51
55068;BME280;40965;52.368;9.712;2023-03-14T13:58:53;98975.88;;;6.10;93.17
55068;BME280;40965;52.368;9.712;2023-03-14T14:01:24;98967.44;;;6.44;92.91
55068;BME280;40965;52.368;9.712;2023-03-14T14:03:54;98974.50;;;6.82;92.25